sensor_id;sensor_type;location;lat;lon;timestamp;P1;durP1;ratioP1;P2;durP2;ratioP2
54561;SDS011;69047;53.358;-1.486;2023-04-24T00:00:53;3.95;;;1.23;;
54561;SDS011;69047;53.358;-1.486;2023-04-24T00:03:21;4.28;;;1.70;;
54561;SDS011;69047;53.358;-1.486;2023-04-24T00:05:50;4.15;;;1.42;;
54561;SDS011;69047;53.358;-1.486;2023-04-24T00:08:17;2.85;;;1.23;;
54561;SDS011;69047;53.358;-1.486;2023-04-24T00:10:42;5.03;;;1.63;;
54561;SDS011;69047;53.358;-1.486;2023-04-24T00:13:08;3.88;;;1.42;;
54561;SDS011;69047;53.358;-1.486;2023-04-24T00:15:33;5.60;;;1.63;;
54561;SDS011;69047;53.358;-1.486;2023-04-24T00:17:59;3.35;;;1.45;;
54561;SDS011;69047;53.358;-1.486;2023-04-24T00:20:26;4.43;;;1.65;;
54561;SDS011;69047;53.358;-1.486;2023-04-24T00:22:53;3.67;;;1.40;;
54561;SDS011;69047;53.358;-1.486;2023-04-24T00:25:18;4.07;;;1.10;;
54561;SDS011;69047;53.358;-1.486;2023-04-24T00:27:43;4.30;;;1.30;;
54561;SDS011;69047;53.358;-1.486;2023-04-24T00:30:09;4.78;;;1.38;;
54561;SDS011;69047;53.358;-1.486;2023-04-24T00:32:36;3.75;;;1.15;;
54561;SDS011;69047;53.358;-1.486;2023-04-24T00:35:01;2.20;;;1.35;;
54561;SDS011;69047;53.358;-1.486;2023-04-24T00:37:27;3.80;;;1.40;;
54561;SDS011;69047;53.358;-1.486;2023-04-24T00:39:52;5.78;;;1.52;;
54561;SDS011;69047;53.358;-1.486;2023-04-24T00:42:17;5.25;;;1.23;;
54561;SDS011;69047;53.358;-1.486;2023-04-24T00:44:43;4.57;;;1.67;;
54561;SDS011;69047;53.358;-1.486;2023-04-24T00:47:08;2.40;;;1.00;;
54561;SDS011;69047;53.358;-1.486;2023-04-24T00:49:34;3.90;;;1.10;;
54561;SDS011;69047;53.358;-1.486;2023-04-24T00:51:59;2.63;;;1.15;;
54561;SDS011;69047;53.358;-1.486;2023-04-24T00:54:25;1.80;;;1.10;;
54561;SDS011;69047;53.358;-1.486;2023-04-24T00:56:50;3.83;;;1.20;;
54561;SDS011;69047;53.358;-1.486;2023-04-24T00:59:16;3.63;;;1.38;;
54561;SDS011;69047;53.358;-1.486;2023-04-24T01:01:43;2.30;;;1.10;;
54561;SDS011;69047;53.358;-1.486;2023-04-24T01:04:09;4.10;;;1.33;;
54561;SDS011;69047;53.358;-1.486;2023-04-24T01:06:37;4.28;;;1.30;;
54561;SDS011;69047;53.358;-1.486;2023-04-24T01:09:04;2.58;;;1.25;;
54561;SDS011;69047;53.358;-1.486;2023-04-24T01:11:30;3.70;;;1.27;;
54561;SDS011;69047;53.358;-1.486;2023-04-24T01:13:56;2.88;;;1.00;;
54561;SDS011;69047;53.358;-1.486;2023-04-24T01:16:22;2.40;;;1.17;;
54561;SDS011;69047;53.358;-1.486;2023-04-24T01:18:47;2.83;;;1.08;;
54561;SDS011;69047;53.358;-1.486;2023-04-24T01:21:13;3.55;;;1.23;;
54561;SDS011;69047;53.358;-1.486;2023-04-24T01:23:41;2.63;;;0.80;;
54561;SDS011;69047;53.358;-1.486;2023-04-24T01:26:08;2.72;;;1.20;;
54561;SDS011;69047;53.358;-1.486;2023-04-24T01:28:33;2.97;;;0.93;;
54561;SDS011;69047;53.358;-1.486;2023-04-24T01:30:59;2.25;;;0.75;;
54561;SDS011;69047;53.358;-1.486;2023-04-24T01:33:24;3.47;;;0.80;;
54561;SDS011;69047;53.358;-1.486;2023-04-24T01:35:50;3.97;;;1.13;;
54561;SDS011;69047;53.358;-1.486;2023-04-24T01:38:16;2.03;;;0.80;;
54561;SDS011;69047;53.358;-1.486;2023-04-24T01:40:41;2.92;;;0.82;;
54561;SDS011;69047;53.358;-1.486;2023-04-24T01:43:06;2.25;;;0.82;;
54561;SDS011;69047;53.358;-1.486;2023-04-24T01:45:32;2.90;;;0.80;;
54561;SDS011;69047;53.358;-1.486;2023-04-24T01:47:57;2.38;;;0.90;;
54561;SDS011;69047;53.358;-1.486;2023-04-24T01:50:23;4.15;;;0.85;;
54561;SDS011;69047;53.358;-1.486;2023-04-24T01:52:49;2.50;;;0.85;;
54561;SDS011;69047;53.358;-1.486;2023-04-24T01:55:14;3.15;;;0.80;;
54561;SDS011;69047;53.358;-1.486;2023-04-24T01:57:40;2.67;;;0.65;;
54561;SDS011;69047;53.358;-1.486;2023-04-24T02:00:05;0.88;;;0.47;;
54561;SDS011;69047;53.358;-1.486;2023-04-24T02:02:31;2.42;;;0.68;;
54561;SDS011;69047;53.358;-1.486;2023-04-24T02:04:57;1.83;;;0.70;;
54561;SDS011;69047;53.358;-1.486;2023-04-24T02:07:22;2.30;;;0.75;;
54561;SDS011;69047;53.358;-1.486;2023-04-24T02:09:48;2.60;;;1.00;;
54561;SDS011;69047;53.358;-1.486;2023-04-24T02:12:14;3.05;;;0.60;;
54561;SDS011;69047;53.358;-1.486;2023-04-24T02:14:45;3.63;;;1.15;;
54561;SDS011;69047;53.358;-1.486;2023-04-24T02:17:10;1.05;;;0.68;;
54561;SDS011;69047;53.358;-1.486;2023-04-24T02:19:37;2.15;;;1.08;;
54561;SDS011;69047;53.358;-1.486;2023-04-24T02:22:02;3.85;;;0.88;;
54561;SDS011;69047;53.358;-1.486;2023-04-24T02:24:28;4.10;;;0.73;;
54561;SDS011;69047;53.358;-1.486;2023-04-24T02:26:53;3.60;;;1.08;;
54561;SDS011;69047;53.358;-1.486;2023-04-24T02:29:18;2.30;;;1.10;;
54561;SDS011;69047;53.358;-1.486;2023-04-24T02:31:44;4.05;;;1.02;;
54561;SDS011;69047;53.358;-1.486;2023-04-24T02:34:09;3.47;;;0.70;;
54561;SDS011;69047;53.358;-1.486;2023-04-24T02:36:35;3.45;;;0.90;;
54561;SDS011;69047;53.358;-1.486;2023-04-24T02:39:00;1.20;;;0.55;;
54561;SDS011;69047;53.358;-1.486;2023-04-24T02:41:26;2.00;;;0.70;;
54561;SDS011;69047;53.358;-1.486;2023-04-24T02:43:56;2.15;;;0.80;;
54561;SDS011;69047;53.358;-1.486;2023-04-24T02:46:22;2.25;;;0.75;;
54561;SDS011;69047;53.358;-1.486;2023-04-24T02:48:47;2.95;;;0.93;;
54561;SDS011;69047;53.358;-1.486;2023-04-24T02:51:13;2.10;;;0.70;;
54561;SDS011;69047;53.358;-1.486;2023-04-24T02:53:38;1.45;;;0.63;;
54561;SDS011;69047;53.358;-1.486;2023-04-24T02:56:03;2.25;;;0.70;;
54561;SDS011;69047;53.358;-1.486;2023-04-24T02:58:29;2.85;;;0.60;;
54561;SDS011;69047;53.358;-1.486;2023-04-24T03:00:55;2.40;;;0.90;;
54561;SDS011;69047;53.358;-1.486;2023-04-24T03:03:21;2.50;;;0.50;;
54561;SDS011;69047;53.358;-1.486;2023-04-24T03:05:46;1.83;;;0.60;;
54561;SDS011;69047;53.358;-1.486;2023-04-24T03:08:12;1.52;;;0.65;;
54561;SDS011;69047;53.358;-1.486;2023-04-24T03:10:37;1.65;;;0.95;;
54561;SDS011;69047;53.358;-1.486;2023-04-24T03:13:03;2.42;;;0.75;;
54561;SDS011;69047;53.358;-1.486;2023-04-24T03:15:29;2.42;;;0.75;;
54561;SDS011;69047;53.358;-1.486;2023-04-24T03:17:55;0.88;;;0.47;;
54561;SDS011;69047;53.358;-1.486;2023-04-24T03:20:20;2.05;;;0.75;;
54561;SDS011;69047;53.358;-1.486;2023-04-24T03:22:46;2.00;;;0.80;;
54561;SDS011;69047;53.358;-1.486;2023-04-24T03:25:11;2.20;;;0.68;;
54561;SDS011;69047;53.358;-1.486;2023-04-24T03:27:36;1.55;;;0.52;;
54561;SDS011;69047;53.358;-1.486;2023-04-24T03:30:02;3.35;;;0.73;;
54561;SDS011;69047;53.358;-1.486;2023-04-24T03:32:28;2.00;;;0.95;;
54561;SDS011;69047;53.358;-1.486;2023-04-24T03:34:53;1.80;;;0.63;;
54561;SDS011;69047;53.358;-1.486;2023-04-24T03:37:19;3.95;;;0.85;;
54561;SDS011;69047;53.358;-1.486;2023-04-24T03:39:44;1.17;;;0.60;;
54561;SDS011;69047;53.358;-1.486;2023-04-24T03:42:09;3.15;;;0.77;;
54561;SDS011;69047;53.358;-1.486;2023-04-24T03:44:35;1.95;;;0.82;;
54561;SDS011;69047;53.358;-1.486;2023-04-24T03:47:01;4.63;;;0.80;;
54561;SDS011;69047;53.358;-1.486;2023-04-24T03:49:26;2.92;;;1.00;;
54561;SDS011;69047;53.358;-1.486;2023-04-24T03:51:52;1.92;;;0.77;;
54561;SDS011;69047;53.358;-1.486;2023-04-24T03:54:18;1.55;;;0.60;;
54561;SDS011;69047;53.358;-1.486;2023-04-24T03:56:44;3.40;;;0.93;;
54561;SDS011;69047;53.358;-1.486;2023-04-24T03:59:09;3.42;;;1.13;;
54561;SDS011;69047;53.358;-1.486;2023-04-24T04:01:34;3.97;;;1.00;;
54561;SDS011;69047;53.358;-1.486;2023-04-24T04:04:05;3.22;;;0.77;;
54561;SDS011;69047;53.358;-1.486;2023-04-24T04:06:31;2.90;;;1.13;;
54561;SDS011;69047;53.358;-1.486;2023-04-24T04:08:57;2.20;;;0.60;;
54561;SDS011;69047;53.358;-1.486;2023-04-24T04:11:23;2.65;;;0.70;;
54561;SDS011;69047;53.358;-1.486;2023-04-24T04:13:48;1.73;;;0.52;;
54561;SDS011;69047;53.358;-1.486;2023-04-24T04:16:14;2.83;;;0.57;;
54561;SDS011;69047;53.358;-1.486;2023-04-24T04:18:42;1.63;;;0.55;;
54561;SDS011;69047;53.358;-1.486;2023-04-24T04:21:07;1.98;;;0.57;;
54561;SDS011;69047;53.358;-1.486;2023-04-24T04:23:34;3.95;;;0.95;;
54561;SDS011;69047;53.358;-1.486;2023-04-24T04:26:02;3.28;;;0.80;;
54561;SDS011;69047;53.358;-1.486;2023-04-24T04:28:28;4.60;;;1.00;;
54561;SDS011;69047;53.358;-1.486;2023-04-24T04:30:55;2.17;;;0.98;;
54561;SDS011;69047;53.358;-1.486;2023-04-24T04:33:22;3.10;;;0.77;;
54561;SDS011;69047;53.358;-1.486;2023-04-24T04:35:48;2.55;;;0.70;;
54561;SDS011;69047;53.358;-1.486;2023-04-24T04:38:15;2.03;;;0.70;;
54561;SDS011;69047;53.358;-1.486;2023-04-24T04:40:42;2.50;;;0.70;;
54561;SDS011;69047;53.358;-1.486;2023-04-24T04:43:08;2.05;;;0.80;;
54561;SDS011;69047;53.358;-1.486;2023-04-24T04:45:35;2.80;;;0.90;;
54561;SDS011;69047;53.358;-1.486;2023-04-24T04:48:00;3.58;;;0.88;;
54561;SDS011;69047;53.358;-1.486;2023-04-24T04:50:26;2.25;;;0.85;;
54561;SDS011;69047;53.358;-1.486;2023-04-24T04:52:52;1.98;;;0.80;;
54561;SDS011;69047;53.358;-1.486;2023-04-24T04:55:17;2.22;;;0.60;;
54561;SDS011;69047;53.358;-1.486;2023-04-24T04:57:44;3.70;;;1.10;;
54561;SDS011;69047;53.358;-1.486;2023-04-24T05:00:10;2.00;;;0.50;;
54561;SDS011;69047;53.358;-1.486;2023-04-24T05:02:36;3.10;;;0.88;;
54561;SDS011;69047;53.358;-1.486;2023-04-24T05:05:02;4.45;;;0.80;;
54561;SDS011;69047;53.358;-1.486;2023-04-24T05:07:27;0.88;;;0.55;;
54561;SDS011;69047;53.358;-1.486;2023-04-24T05:09:53;2.65;;;0.73;;
54561;SDS011;69047;53.358;-1.486;2023-04-24T05:12:18;2.70;;;0.90;;
54561;SDS011;69047;53.358;-1.486;2023-04-24T05:14:43;1.63;;;0.60;;
54561;SDS011;69047;53.358;-1.486;2023-04-24T05:17:09;2.13;;;0.55;;
54561;SDS011;69047;53.358;-1.486;2023-04-24T05:19:34;10.13;;;2.25;;
54561;SDS011;69047;53.358;-1.486;2023-04-24T05:22:02;12.10;;;3.35;;
54561;SDS011;69047;53.358;-1.486;2023-04-24T05:24:29;17.73;;;5.82;;
54561;SDS011;69047;53.358;-1.486;2023-04-24T05:26:54;13.68;;;5.13;;
54561;SDS011;69047;53.358;-1.486;2023-04-24T05:29:20;17.60;;;5.20;;
54561;SDS011;69047;53.358;-1.486;2023-04-24T05:31:46;13.23;;;4.50;;
54561;SDS011;69047;53.358;-1.486;2023-04-24T05:34:11;11.93;;;3.85;;
54561;SDS011;69047;53.358;-1.486;2023-04-24T05:36:37;9.95;;;2.92;;
54561;SDS011;69047;53.358;-1.486;2023-04-24T05:39:02;9.00;;;2.85;;
54561;SDS011;69047;53.358;-1.486;2023-04-24T05:41:30;8.55;;;2.90;;
54561;SDS011;69047;53.358;-1.486;2023-04-24T05:43:55;13.25;;;3.25;;
54561;SDS011;69047;53.358;-1.486;2023-04-24T05:46:21;5.85;;;2.17;;
54561;SDS011;69047;53.358;-1.486;2023-04-24T05:48:46;6.47;;;2.33;;
54561;SDS011;69047;53.358;-1.486;2023-04-24T05:51:12;8.80;;;2.50;;
54561;SDS011;69047;53.358;-1.486;2023-04-24T05:53:37;8.30;;;2.67;;
54561;SDS011;69047;53.358;-1.486;2023-04-24T05:56:03;6.30;;;2.42;;
54561;SDS011;69047;53.358;-1.486;2023-04-24T05:58:28;7.03;;;2.42;;
54561;SDS011;69047;53.358;-1.486;2023-04-24T06:00:54;4.85;;;1.63;;
54561;SDS011;69047;53.358;-1.486;2023-04-24T06:03:20;7.63;;;2.35;;
54561;SDS011;69047;53.358;-1.486;2023-04-24T06:05:45;9.50;;;2.15;;
54561;SDS011;69047;53.358;-1.486;2023-04-24T06:08:11;10.70;;;2.35;;
54561;SDS011;69047;53.358;-1.486;2023-04-24T06:10:36;5.68;;;1.63;;
54561;SDS011;69047;53.358;-1.486;2023-04-24T06:13:02;7.50;;;2.10;;
54561;SDS011;69047;53.358;-1.486;2023-04-24T06:15:30;6.65;;;1.58;;
54561;SDS011;69047;53.358;-1.486;2023-04-24T06:17:58;5.50;;;1.55;;
54561;SDS011;69047;53.358;-1.486;2023-04-24T06:20:24;4.57;;;1.90;;
54561;SDS011;69047;53.358;-1.486;2023-04-24T06:22:49;4.65;;;1.95;;
54561;SDS011;69047;53.358;-1.486;2023-04-24T06:25:15;5.10;;;1.55;;
54561;SDS011;69047;53.358;-1.486;2023-04-24T06:27:40;5.90;;;1.75;;
54561;SDS011;69047;53.358;-1.486;2023-04-24T06:30:06;4.53;;;1.77;;
54561;SDS011;69047;53.358;-1.486;2023-04-24T06:32:32;7.40;;;1.55;;
54561;SDS011;69047;53.358;-1.486;2023-04-24T06:34:57;7.78;;;2.08;;
54561;SDS011;69047;53.358;-1.486;2023-04-24T06:37:23;5.82;;;1.83;;
54561;SDS011;69047;53.358;-1.486;2023-04-24T06:39:48;7.95;;;1.75;;
54561;SDS011;69047;53.358;-1.486;2023-04-24T06:42:13;8.90;;;2.00;;
54561;SDS011;69047;53.358;-1.486;2023-04-24T06:44:39;7.45;;;2.03;;
54561;SDS011;69047;53.358;-1.486;2023-04-24T06:47:08;10.88;;;2.10;;
54561;SDS011;69047;53.358;-1.486;2023-04-24T06:49:37;6.45;;;1.50;;
54561;SDS011;69047;53.358;-1.486;2023-04-24T06:52:02;6.07;;;1.90;;
54561;SDS011;69047;53.358;-1.486;2023-04-24T06:54:28;11.25;;;1.73;;
54561;SDS011;69047;53.358;-1.486;2023-04-24T06:56:54;6.97;;;1.42;;
54561;SDS011;69047;53.358;-1.486;2023-04-24T06:59:20;4.63;;;1.42;;
54561;SDS011;69047;53.358;-1.486;2023-04-24T07:01:45;8.05;;;2.15;;
54561;SDS011;69047;53.358;-1.486;2023-04-24T07:04:11;7.18;;;1.10;;
54561;SDS011;69047;53.358;-1.486;2023-04-24T07:06:41;10.27;;;1.85;;
54561;SDS011;69047;53.358;-1.486;2023-04-24T07:09:07;4.28;;;1.40;;
54561;SDS011;69047;53.358;-1.486;2023-04-24T07:11:34;5.25;;;1.52;;
54561;SDS011;69047;53.358;-1.486;2023-04-24T07:14:00;9.43;;;2.97;;
54561;SDS011;69047;53.358;-1.486;2023-04-24T07:16:25;7.13;;;2.20;;
54561;SDS011;69047;53.358;-1.486;2023-04-24T07:18:51;6.72;;;2.35;;
54561;SDS011;69047;53.358;-1.486;2023-04-24T07:21:17;7.28;;;2.40;;
54561;SDS011;69047;53.358;-1.486;2023-04-24T07:23:42;10.05;;;2.75;;
54561;SDS011;69047;53.358;-1.486;2023-04-24T07:26:07;4.50;;;2.40;;
54561;SDS011;69047;53.358;-1.486;2023-04-24T07:28:33;6.63;;;2.35;;
54561;SDS011;69047;53.358;-1.486;2023-04-24T07:30:58;3.92;;;1.80;;
54561;SDS011;69047;53.358;-1.486;2023-04-24T07:33:25;8.05;;;2.15;;
54561;SDS011;69047;53.358;-1.486;2023-04-24T07:35:50;6.03;;;2.00;;
54561;SDS011;69047;53.358;-1.486;2023-04-24T07:38:16;7.38;;;2.58;;
54561;SDS011;69047;53.358;-1.486;2023-04-24T07:40:45;14.23;;;2.75;;
54561;SDS011;69047;53.358;-1.486;2023-04-24T07:43:10;9.20;;;3.10;;
54561;SDS011;69047;53.358;-1.486;2023-04-24T07:45:36;9.68;;;2.50;;
54561;SDS011;69047;53.358;-1.486;2023-04-24T07:48:02;8.15;;;2.67;;
54561;SDS011;69047;53.358;-1.486;2023-04-24T07:50:28;5.35;;;2.42;;
54561;SDS011;69047;53.358;-1.486;2023-04-24T07:52:53;7.95;;;2.35;;
54561;SDS011;69047;53.358;-1.486;2023-04-24T07:55:18;8.02;;;2.05;;
54561;SDS011;69047;53.358;-1.486;2023-04-24T07:57:44;7.43;;;1.80;;
54561;SDS011;69047;53.358;-1.486;2023-04-24T08:00:09;7.05;;;2.15;;
54561;SDS011;69047;53.358;-1.486;2023-04-24T08:02:35;5.03;;;1.88;;
54561;SDS011;69047;53.358;-1.486;2023-04-24T08:05:01;9.05;;;1.98;;
54561;SDS011;69047;53.358;-1.486;2023-04-24T08:07:28;14.10;;;2.15;;
54561;SDS011;69047;53.358;-1.486;2023-04-24T08:09:53;7.35;;;2.00;;
54561;SDS011;69047;53.358;-1.486;2023-04-24T08:12:18;7.70;;;2.03;;
54561;SDS011;69047;53.358;-1.486;2023-04-24T08:14:44;8.77;;;2.50;;
54561;SDS011;69047;53.358;-1.486;2023-04-24T08:17:09;8.90;;;2.10;;
54561;SDS011;69047;53.358;-1.486;2023-04-24T08:19:35;8.02;;;1.95;;
54561;SDS011;69047;53.358;-1.486;2023-04-24T08:22:00;6.70;;;1.90;;
54561;SDS011;69047;53.358;-1.486;2023-04-24T08:24:26;9.63;;;2.20;;
54561;SDS011;69047;53.358;-1.486;2023-04-24T08:26:51;6.80;;;1.90;;
54561;SDS011;69047;53.358;-1.486;2023-04-24T08:29:19;5.45;;;2.22;;
54561;SDS011;69047;53.358;-1.486;2023-04-24T08:31:44;9.80;;;1.85;;
54561;SDS011;69047;53.358;-1.486;2023-04-24T08:34:10;7.25;;;2.08;;
54561;SDS011;69047;53.358;-1.486;2023-04-24T08:36:35;7.72;;;2.20;;
54561;SDS011;69047;53.358;-1.486;2023-04-24T08:39:01;10.13;;;2.13;;
54561;SDS011;69047;53.358;-1.486;2023-04-24T08:41:27;7.18;;;1.90;;
54561;SDS011;69047;53.358;-1.486;2023-04-24T08:43:52;6.57;;;1.90;;
54561;SDS011;69047;53.358;-1.486;2023-04-24T08:46:18;4.20;;;1.90;;
54561;SDS011;69047;53.358;-1.486;2023-04-24T08:48:45;5.57;;;2.05;;
54561;SDS011;69047;53.358;-1.486;2023-04-24T08:51:10;4.25;;;1.42;;
54561;SDS011;69047;53.358;-1.486;2023-04-24T08:53:36;7.03;;;1.65;;
54561;SDS011;69047;53.358;-1.486;2023-04-24T08:56:02;5.90;;;1.88;;
54561;SDS011;69047;53.358;-1.486;2023-04-24T08:58:28;8.52;;;2.00;;
54561;SDS011;69047;53.358;-1.486;2023-04-24T09:00:55;7.88;;;2.25;;
54561;SDS011;69047;53.358;-1.486;2023-04-24T09:03:21;5.28;;;1.52;;
54561;SDS011;69047;53.358;-1.486;2023-04-24T09:05:48;3.97;;;1.52;;
54561;SDS011;69047;53.358;-1.486;2023-04-24T09:08:16;8.00;;;2.10;;
54561;SDS011;69047;53.358;-1.486;2023-04-24T09:10:43;5.35;;;1.73;;
54561;SDS011;69047;53.358;-1.486;2023-04-24T09:13:10;6.50;;;2.17;;
54561;SDS011;69047;53.358;-1.486;2023-04-24T09:15:36;5.72;;;2.22;;
54561;SDS011;69047;53.358;-1.486;2023-04-24T09:18:03;5.93;;;1.70;;
54561;SDS011;69047;53.358;-1.486;2023-04-24T09:20:29;6.90;;;1.80;;
54561;SDS011;69047;53.358;-1.486;2023-04-24T09:22:58;8.68;;;2.03;;
54561;SDS011;69047;53.358;-1.486;2023-04-24T09:25:31;7.00;;;2.10;;
54561;SDS011;69047;53.358;-1.486;2023-04-24T09:28:02;3.03;;;1.42;;
54561;SDS011;69047;53.358;-1.486;2023-04-24T09:30:28;4.95;;;1.58;;
54561;SDS011;69047;53.358;-1.486;2023-04-24T09:33:12;6.35;;;2.10;;
54561;SDS011;69047;53.358;-1.486;2023-04-24T09:35:43;7.18;;;2.15;;
54561;SDS011;69047;53.358;-1.486;2023-04-24T09:38:14;6.13;;;1.73;;
54561;SDS011;69047;53.358;-1.486;2023-04-24T09:40:39;8.95;;;2.20;;
54561;SDS011;69047;53.358;-1.486;2023-04-24T09:43:09;4.93;;;1.98;;
54561;SDS011;69047;53.358;-1.486;2023-04-24T09:45:36;4.55;;;1.95;;
54561;SDS011;69047;53.358;-1.486;2023-04-24T09:48:02;4.70;;;1.90;;
54561;SDS011;69047;53.358;-1.486;2023-04-24T09:50:29;7.70;;;1.95;;
54561;SDS011;69047;53.358;-1.486;2023-04-24T09:52:58;8.52;;;2.05;;
54561;SDS011;69047;53.358;-1.486;2023-04-24T09:55:24;3.53;;;1.70;;
54561;SDS011;69047;53.358;-1.486;2023-04-24T10:00:26;7.90;;;2.10;;
54561;SDS011;69047;53.358;-1.486;2023-04-24T10:02:56;7.57;;;2.70;;
54561;SDS011;69047;53.358;-1.486;2023-04-24T10:05:29;8.80;;;2.00;;
54561;SDS011;69047;53.358;-1.486;2023-04-24T10:08:03;7.15;;;2.15;;
54561;SDS011;69047;53.358;-1.486;2023-04-24T10:10:32;4.17;;;1.57;;
54561;SDS011;69047;53.358;-1.486;2023-04-24T10:12:59;5.78;;;1.92;;
54561;SDS011;69047;53.358;-1.486;2023-04-24T10:15:25;3.45;;;1.83;;
54561;SDS011;69047;53.358;-1.486;2023-04-24T10:17:51;4.65;;;1.75;;
54561;SDS011;69047;53.358;-1.486;2023-04-24T10:20:28;5.03;;;1.73;;
54561;SDS011;69047;53.358;-1.486;2023-04-24T10:22:57;7.68;;;2.38;;
54561;SDS011;69047;53.358;-1.486;2023-04-24T10:25:24;7.05;;;2.55;;
54561;SDS011;69047;53.358;-1.486;2023-04-24T10:27:51;4.63;;;1.95;;
54561;SDS011;69047;53.358;-1.486;2023-04-24T10:30:17;6.97;;;1.95;;
54561;SDS011;69047;53.358;-1.486;2023-04-24T10:32:44;6.78;;;1.73;;
54561;SDS011;69047;53.358;-1.486;2023-04-24T10:35:09;4.15;;;1.85;;
54561;SDS011;69047;53.358;-1.486;2023-04-24T10:37:37;6.82;;;1.67;;
54561;SDS011;69047;53.358;-1.486;2023-04-24T10:40:30;8.65;;;2.85;;
54561;SDS011;69047;53.358;-1.486;2023-04-24T10:42:58;8.27;;;2.00;;
54561;SDS011;69047;53.358;-1.486;2023-04-24T10:45:23;7.32;;;2.03;;
54561;SDS011;69047;53.358;-1.486;2023-04-24T10:50:27;7.22;;;2.55;;
54561;SDS011;69047;53.358;-1.486;2023-04-24T10:53:04;7.50;;;1.95;;
54561;SDS011;69047;53.358;-1.486;2023-04-24T10:55:56;6.75;;;1.90;;
54561;SDS011;69047;53.358;-1.486;2023-04-24T10:58:24;11.02;;;2.65;;
54561;SDS011;69047;53.358;-1.486;2023-04-24T11:00:58;8.65;;;2.30;;
54561;SDS011;69047;53.358;-1.486;2023-04-24T11:03:31;4.25;;;1.83;;
54561;SDS011;69047;53.358;-1.486;2023-04-24T11:05:59;9.38;;;2.45;;
54561;SDS011;69047;53.358;-1.486;2023-04-24T11:08:30;10.85;;;2.08;;
54561;SDS011;69047;53.358;-1.486;2023-04-24T11:11:07;7.30;;;2.50;;
54561;SDS011;69047;53.358;-1.486;2023-04-24T11:16:21;8.95;;;2.30;;
54561;SDS011;69047;53.358;-1.486;2023-04-24T11:19:00;5.18;;;1.77;;
54561;SDS011;69047;53.358;-1.486;2023-04-24T11:21:26;7.47;;;2.17;;
54561;SDS011;69047;53.358;-1.486;2023-04-24T11:23:56;8.75;;;2.47;;
54561;SDS011;69047;53.358;-1.486;2023-04-24T11:26:23;7.20;;;2.35;;
54561;SDS011;69047;53.358;-1.486;2023-04-24T11:29:05;7.18;;;2.25;;
54561;SDS011;69047;53.358;-1.486;2023-04-24T11:31:36;5.82;;;2.60;;
54561;SDS011;69047;53.358;-1.486;2023-04-24T11:34:09;6.28;;;2.72;;
54561;SDS011;69047;53.358;-1.486;2023-04-24T11:36:37;7.63;;;2.72;;
54561;SDS011;69047;53.358;-1.486;2023-04-24T11:39:03;5.60;;;2.58;;
54561;SDS011;69047;53.358;-1.486;2023-04-24T11:41:29;8.02;;;2.25;;
54561;SDS011;69047;53.358;-1.486;2023-04-24T11:43:57;6.43;;;2.67;;
54561;SDS011;69047;53.358;-1.486;2023-04-24T11:46:22;5.40;;;2.45;;
54561;SDS011;69047;53.358;-1.486;2023-04-24T11:48:48;12.65;;;3.38;;
54561;SDS011;69047;53.358;-1.486;2023-04-24T11:51:13;9.18;;;3.00;;
54561;SDS011;69047;53.358;-1.486;2023-04-24T11:53:39;5.88;;;2.35;;
54561;SDS011;69047;53.358;-1.486;2023-04-24T11:56:04;8.30;;;3.28;;
54561;SDS011;69047;53.358;-1.486;2023-04-24T11:58:37;9.40;;;2.75;;
54561;SDS011;69047;53.358;-1.486;2023-04-24T12:01:04;7.40;;;2.70;;
54561;SDS011;69047;53.358;-1.486;2023-04-24T12:03:30;5.43;;;2.38;;
54561;SDS011;69047;53.358;-1.486;2023-04-24T12:06:08;8.07;;;3.25;;
54561;SDS011;69047;53.358;-1.486;2023-04-24T12:08:34;8.77;;;2.58;;
54561;SDS011;69047;53.358;-1.486;2023-04-24T12:11:00;9.70;;;2.92;;
54561;SDS011;69047;53.358;-1.486;2023-04-24T12:13:26;8.43;;;3.20;;
54561;SDS011;69047;53.358;-1.486;2023-04-24T12:15:52;7.28;;;2.67;;
54561;SDS011;69047;53.358;-1.486;2023-04-24T12:18:17;7.35;;;2.33;;
54561;SDS011;69047;53.358;-1.486;2023-04-24T12:20:43;8.38;;;2.53;;
54561;SDS011;69047;53.358;-1.486;2023-04-24T12:23:08;7.35;;;2.60;;
54561;SDS011;69047;53.358;-1.486;2023-04-24T12:25:34;6.18;;;1.98;;
54561;SDS011;69047;53.358;-1.486;2023-04-24T12:30:28;7.28;;;2.42;;
54561;SDS011;69047;53.358;-1.486;2023-04-24T12:32:54;7.55;;;2.20;;
54561;SDS011;69047;53.358;-1.486;2023-04-24T12:35:20;10.88;;;2.30;;
54561;SDS011;69047;53.358;-1.486;2023-04-24T12:37:47;6.90;;;1.95;;
54561;SDS011;69047;53.358;-1.486;2023-04-24T12:40:13;12.10;;;2.67;;
54561;SDS011;69047;53.358;-1.486;2023-04-24T12:42:49;6.32;;;2.22;;
54561;SDS011;69047;53.358;-1.486;2023-04-24T12:45:16;6.57;;;2.22;;
54561;SDS011;69047;53.358;-1.486;2023-04-24T12:47:43;6.85;;;2.15;;
54561;SDS011;69047;53.358;-1.486;2023-04-24T12:50:10;5.88;;;2.30;;
54561;SDS011;69047;53.358;-1.486;2023-04-24T12:52:36;7.10;;;2.38;;
54561;SDS011;69047;53.358;-1.486;2023-04-24T12:55:02;4.47;;;1.95;;
54561;SDS011;69047;53.358;-1.486;2023-04-24T12:57:28;4.90;;;2.03;;
54561;SDS011;69047;53.358;-1.486;2023-04-24T12:59:55;5.70;;;2.20;;
54561;SDS011;69047;53.358;-1.486;2023-04-24T13:02:22;5.10;;;1.88;;
54561;SDS011;69047;53.358;-1.486;2023-04-24T13:04:48;6.07;;;2.17;;
54561;SDS011;69047;53.358;-1.486;2023-04-24T13:07:14;4.22;;;1.83;;
54561;SDS011;69047;53.358;-1.486;2023-04-24T13:09:40;9.00;;;2.00;;
54561;SDS011;69047;53.358;-1.486;2023-04-24T13:12:06;7.55;;;2.10;;
54561;SDS011;69047;53.358;-1.486;2023-04-24T13:14:32;4.40;;;2.13;;
54561;SDS011;69047;53.358;-1.486;2023-04-24T13:16:58;4.07;;;1.70;;
54561;SDS011;69047;53.358;-1.486;2023-04-24T13:19:27;6.65;;;2.13;;
54561;SDS011;69047;53.358;-1.486;2023-04-24T13:21:53;6.45;;;1.77;;
54561;SDS011;69047;53.358;-1.486;2023-04-24T13:24:20;5.32;;;1.70;;
54561;SDS011;69047;53.358;-1.486;2023-04-24T13:26:46;3.95;;;1.70;;
54561;SDS011;69047;53.358;-1.486;2023-04-24T13:29:11;5.40;;;1.90;;
54561;SDS011;69047;53.358;-1.486;2023-04-24T13:31:36;5.53;;;2.00;;
54561;SDS011;69047;53.358;-1.486;2023-04-24T13:34:02;5.95;;;2.05;;
54561;SDS011;69047;53.358;-1.486;2023-04-24T13:36:28;6.25;;;1.88;;
54561;SDS011;69047;53.358;-1.486;2023-04-24T13:38:55;4.43;;;1.85;;
54561;SDS011;69047;53.358;-1.486;2023-04-24T13:41:20;3.17;;;1.38;;
54561;SDS011;69047;53.358;-1.486;2023-04-24T13:43:45;7.30;;;1.95;;
54561;SDS011;69047;53.358;-1.486;2023-04-24T13:46:11;4.45;;;2.10;;
54561;SDS011;69047;53.358;-1.486;2023-04-24T13:48:36;3.67;;;1.60;;
54561;SDS011;69047;53.358;-1.486;2023-04-24T13:51:01;4.95;;;1.55;;
54561;SDS011;69047;53.358;-1.486;2023-04-24T13:53:27;4.88;;;1.95;;
54561;SDS011;69047;53.358;-1.486;2023-04-24T13:55:52;9.60;;;2.17;;
54561;SDS011;69047;53.358;-1.486;2023-04-24T13:58:18;7.07;;;1.95;;
54561;SDS011;69047;53.358;-1.486;2023-04-24T14:00:43;3.53;;;1.65;;
54561;SDS011;69047;53.358;-1.486;2023-04-24T14:03:08;7.32;;;2.05;;
54561;SDS011;69047;53.358;-1.486;2023-04-24T14:05:34;4.88;;;1.70;;
54561;SDS011;69047;53.358;-1.486;2023-04-24T14:07:59;5.28;;;1.88;;
54561;SDS011;69047;53.358;-1.486;2023-04-24T14:10:25;7.55;;;1.67;;
54561;SDS011;69047;53.358;-1.486;2023-04-24T14:12:52;6.20;;;1.60;;
54561;SDS011;69047;53.358;-1.486;2023-04-24T14:15:18;7.13;;;2.35;;
54561;SDS011;69047;53.358;-1.486;2023-04-24T14:17:43;4.65;;;2.08;;
54561;SDS011;69047;53.358;-1.486;2023-04-24T14:20:09;6.25;;;1.58;;
54561;SDS011;69047;53.358;-1.486;2023-04-24T14:22:35;4.72;;;1.27;;
54561;SDS011;69047;53.358;-1.486;2023-04-24T14:25:00;7.15;;;1.52;;
54561;SDS011;69047;53.358;-1.486;2023-04-24T14:27:26;5.07;;;1.77;;
54561;SDS011;69047;53.358;-1.486;2023-04-24T14:29:51;4.18;;;1.70;;
54561;SDS011;69047;53.358;-1.486;2023-04-24T14:32:17;6.55;;;1.80;;
54561;SDS011;69047;53.358;-1.486;2023-04-24T14:34:42;5.55;;;1.35;;
54561;SDS011;69047;53.358;-1.486;2023-04-24T14:37:08;3.03;;;1.38;;
54561;SDS011;69047;53.358;-1.486;2023-04-24T14:39:33;6.75;;;1.52;;